createdAt,value
2022-09-12T00:00:07.037Z,72.48
2022-09-12T00:02:33.443Z,73.42
2022-09-12T00:04:59.787Z,71.58
2022-09-12T00:07:26.157Z,74.09
2022-09-12T00:09:52.516Z,72.98
2022-09-12T00:12:20.288Z,72.54
2022-09-12T00:14:46.646Z,72.30
2022-09-12T00:17:12.985Z,72.47
2022-09-12T00:19:39.402Z,71.91
2022-09-12T00:22:05.776Z,72.81
2022-09-12T00:24:32.279Z,74.92
2022-09-12T00:26:58.644Z,76.16
2022-09-12T00:29:26.377Z,75.00
2022-09-12T00:31:52.809Z,74.77
2022-09-12T00:34:19.166Z,73.28
2022-09-12T00:36:45.526Z,73.17
2022-09-12T00:39:14.963Z,74.08
2022-09-12T00:41:41.314Z,74.38
2022-09-12T00:44:41.237Z,72.70
2022-09-12T00:47:16.164Z,75.01
2022-09-12T00:49:47.624Z,74.86
2022-09-12T00:52:19.138Z,74.34
2022-09-12T00:54:49.742Z,74.21
2022-09-12T00:57:17.953Z,74.56
2022-09-12T00:59:50.061Z,74.41
2022-09-12T01:02:18.521Z,75.86
2022-09-12T01:04:45.271Z,74.93
2022-09-12T01:07:12.628Z,73.16
2022-09-12T01:09:40.499Z,72.84
2022-09-12T01:12:06.968Z,74.40
2022-09-12T01:14:34.889Z,73.66
2022-09-12T01:17:01.656Z,73.69
2022-09-12T01:20:05.502Z,73.49
2022-09-12T01:22:54.581Z,74.25
2022-09-12T01:25:28.660Z,74.34
2022-09-12T01:28:21.244Z,73.17
2022-09-12T01:30:54.049Z,72.92
2022-09-12T01:33:39.776Z,74.20
2022-09-12T01:36:24.639Z,74.56
2022-09-12T01:38:58.731Z,74.69
2022-09-12T01:41:29.770Z,76.49
2022-09-12T01:44:03.869Z,73.73
2022-09-12T01:46:36.345Z,75.27
2022-09-12T01:49:09.060Z,73.39
2022-09-12T01:51:39.711Z,73.16
2022-09-12T01:54:09.746Z,73.44
2022-09-12T01:56:39.866Z,73.27
2022-09-12T01:59:10.963Z,73.68
2022-09-12T02:01:45.776Z,73.60
2022-09-12T02:04:15.509Z,73.75
2022-09-12T02:06:48.910Z,73.54
2022-09-12T02:09:21.060Z,74.23
2022-09-12T02:11:49.908Z,76.24
2022-09-12T02:14:21.408Z,76.21
2022-09-12T02:16:54.342Z,74.72
2022-09-12T02:19:23.752Z,75.03
2022-09-12T02:21:53.776Z,74.63
2022-09-12T02:24:21.966Z,74.43
2022-09-12T02:26:54.531Z,73.64
2022-09-12T02:29:20.925Z,75.04
2022-09-12T02:31:54.147Z,75.37
2022-09-12T02:34:32.095Z,74.77
2022-09-12T02:37:06.685Z,73.54
2022-09-12T02:39:33.602Z,73.89
2022-09-12T02:42:02.245Z,74.69
2022-09-12T02:44:30.504Z,73.39
2022-09-12T02:47:02.275Z,74.37
2022-09-12T02:49:28.668Z,73.39
2022-09-12T02:51:55.539Z,74.54
2022-09-12T02:54:22.047Z,74.62
2022-09-12T02:56:48.395Z,73.58
2022-09-12T02:59:17.760Z,76.01
2022-09-12T03:02:06.650Z,76.21
2022-09-12T03:04:53.377Z,74.94
2022-09-12T03:07:33.204Z,76.92
2022-09-12T03:10:05.471Z,74.98
2022-09-12T03:12:44.071Z,74.43
2022-09-12T03:15:25.339Z,74.91
2022-09-12T03:18:05.899Z,75.25
2022-09-12T03:20:44.728Z,75.43
2022-09-12T03:23:18.965Z,76.79
2022-09-12T03:25:51.447Z,75.24
2022-09-12T03:28:20.055Z,75.42
2022-09-12T03:30:48.354Z,74.93
2022-09-12T03:33:17.932Z,74.52
2022-09-12T03:35:44.920Z,74.68
2022-09-12T03:38:11.356Z,75.55
2022-09-12T03:40:38.283Z,74.20
2022-09-12T03:43:05.754Z,74.43
2022-09-12T03:45:32.415Z,74.75
2022-09-12T03:47:59.428Z,75.72
2022-09-12T03:50:27.299Z,75.09
2022-09-12T03:52:53.865Z,75.19
2022-09-12T03:55:20.278Z,75.53
2022-09-12T03:57:46.619Z,74.17
2022-09-12T04:00:17.676Z,74.18
2022-09-12T04:02:46.303Z,75.35
2022-09-12T04:05:12.789Z,76.17
2022-09-12T04:07:40.479Z,75.33
2022-09-12T04:10:09.483Z,74.33
2022-09-12T04:12:36.015Z,75.17
2022-09-12T04:15:02.543Z,75.00
2022-09-12T04:17:28.902Z,74.31
2022-09-12T04:19:55.257Z,74.98
2022-09-12T04:22:21.623Z,74.11
2022-09-12T04:24:49.324Z,74.81
2022-09-12T04:27:15.718Z,75.44
2022-09-12T04:29:42.074Z,75.93
2022-09-12T04:32:08.420Z,74.81
2022-09-12T04:34:34.907Z,74.15
2022-09-12T04:37:01.271Z,74.57
2022-09-12T04:39:27.617Z,73.92
2022-09-12T04:41:55.335Z,74.39
2022-09-12T04:44:21.961Z,74.75
2022-09-12T04:46:48.412Z,76.04
2022-09-12T04:49:15.588Z,74.99
2022-09-12T04:51:42.790Z,75.01
2022-09-12T04:54:12.130Z,75.26
2022-09-12T04:56:39.783Z,74.48
2022-09-12T04:59:08.132Z,73.97
2022-09-12T05:01:35.187Z,73.46
2022-09-12T05:04:02.086Z,74.28
2022-09-12T05:06:30.573Z,73.37
2022-09-12T05:08:57.541Z,73.93
2022-09-12T05:11:36.853Z,73.08
2022-09-12T05:14:13.968Z,74.09
2022-09-12T05:16:40.355Z,74.32
2022-09-12T05:19:06.840Z,75.52
2022-09-12T05:21:33.269Z,74.44
2022-09-12T05:23:59.668Z,75.14
2022-09-12T05:26:26.589Z,74.33
2022-09-12T05:28:54.053Z,74.20
2022-09-12T05:31:23.584Z,74.40
2022-09-12T05:33:51.915Z,76.07
2022-09-12T05:36:19.940Z,74.79
2022-09-12T05:38:47.117Z,76.48
2022-09-12T05:41:18.958Z,75.18
2022-09-12T05:43:47.625Z,76.08
2022-09-12T05:46:16.602Z,74.95
2022-09-12T05:48:45.760Z,73.27
2022-09-12T05:51:14.471Z,73.60
2022-09-12T05:53:41.324Z,73.29
2022-09-12T05:56:10.280Z,74.26
2022-09-12T05:58:39.229Z,76.30
2022-09-12T06:01:06.736Z,74.46
2022-09-12T06:03:33.361Z,74.32
2022-09-12T06:06:03.905Z,73.51
2022-09-12T06:08:30.880Z,73.74
2022-09-12T06:11:02.372Z,73.50
2022-09-12T06:13:30.724Z,73.65
2022-09-12T06:16:02.649Z,74.00
2022-09-12T06:18:29.000Z,72.86
2022-09-12T06:20:55.372Z,72.37
2022-09-12T06:23:24.602Z,73.03
2022-09-12T06:25:50.994Z,72.80
2022-09-12T06:28:17.372Z,72.65
2022-09-12T06:30:43.750Z,70.83
2022-09-12T06:33:10.138Z,72.68
2022-09-12T06:35:37.019Z,72.34
2022-09-12T06:38:03.732Z,73.08
2022-09-12T06:40:31.622Z,72.55
2022-09-12T06:42:57.991Z,72.45
2022-09-12T06:45:24.418Z,71.60
2022-09-12T06:47:50.778Z,72.39
2022-09-12T06:50:17.411Z,72.63
2022-09-12T06:52:43.747Z,70.96
2022-09-12T06:55:10.282Z,70.58
2022-09-12T06:57:37.965Z,71.56
2022-09-12T07:00:05.494Z,74.17
2022-09-12T07:02:31.896Z,71.59
2022-09-12T07:04:58.340Z,71.08
2022-09-12T07:07:24.688Z,70.93
2022-09-12T07:09:51.043Z,70.17
2022-09-12T07:12:17.448Z,71.12
2022-09-12T07:14:45.138Z,71.69
2022-09-12T07:17:11.547Z,70.17
2022-09-12T07:19:37.931Z,71.72
2022-09-12T07:22:04.330Z,69.91
2022-09-12T07:24:30.695Z,70.70
2022-09-12T07:26:57.038Z,70.00
2022-09-12T07:29:36.642Z,70.01
2022-09-12T07:32:06.011Z,70.73
2022-09-12T07:34:32.687Z,71.16
2022-09-12T07:36:59.060Z,70.43
2022-09-12T07:39:25.427Z,72.31
2022-09-12T07:41:51.788Z,70.54
2022-09-12T07:44:18.183Z,70.37
2022-09-12T07:46:44.552Z,71.33
2022-09-12T07:49:12.968Z,70.13
2022-09-12T07:51:39.315Z,70.08
2022-09-12T07:54:07.734Z,69.79
2022-09-12T07:56:38.730Z,68.62
2022-09-12T07:59:05.651Z,70.17
2022-09-12T08:01:32.299Z,67.79
2022-09-12T08:04:00.034Z,68.31
2022-09-12T08:06:29.006Z,69.93
2022-09-12T08:08:57.264Z,67.18
2022-09-12T08:11:25.120Z,68.45
2022-09-12T08:13:55.603Z,69.48
2022-09-12T08:16:24.743Z,68.00
2022-09-12T08:18:51.364Z,67.25
2022-09-12T08:21:19.214Z,70.38
2022-09-12T08:23:47.853Z,68.02
2022-09-12T08:26:14.388Z,66.70
2022-09-12T08:28:44.718Z,67.84
2022-09-12T08:31:13.199Z,65.03
2022-09-12T08:33:39.826Z,65.28
2022-09-12T08:36:09.794Z,65.39
2022-09-12T08:38:37.729Z,66.30
2022-09-12T08:41:11.807Z,66.35
2022-09-12T08:43:56.116Z,63.69
2022-09-12T08:46:31.444Z,64.53
2022-09-12T08:49:00.539Z,64.77
2022-09-12T08:51:28.959Z,64.62
2022-09-12T08:53:57.177Z,64.31
2022-09-12T08:56:30.995Z,62.86
2022-09-12T08:58:58.065Z,60.81
2022-09-12T09:01:30.699Z,60.38
2022-09-12T09:04:13.276Z,62.80
2022-09-12T09:07:07.654Z,62.17
2022-09-12T09:09:44.657Z,61.31
2022-09-12T09:12:20.676Z,60.21
2022-09-12T09:15:02.549Z,59.95
2022-09-12T09:17:33.363Z,59.02
2022-09-12T09:20:05.587Z,56.72
2022-09-12T09:22:41.179Z,56.21
2022-09-12T09:25:15.022Z,61.10
2022-09-12T09:27:49.084Z,59.21
2022-09-12T09:30:17.565Z,57.90
2022-09-12T09:32:47.590Z,57.27
2022-09-12T09:35:17.301Z,58.29
2022-09-12T09:37:58.628Z,55.72
2022-09-12T09:40:30.861Z,53.92
2022-09-12T09:43:05.240Z,56.27
2022-09-12T09:45:31.624Z,56.01
2022-09-12T09:48:00.912Z,54.83
2022-09-12T09:50:27.715Z,58.60
2022-09-12T09:52:57.618Z,58.09
2022-09-12T09:55:29.045Z,57.20
2022-09-12T09:57:55.424Z,57.38
2022-09-12T10:00:26.982Z,54.22
2022-09-12T10:03:00.811Z,54.88
2022-09-12T10:05:27.362Z,53.69
2022-09-12T10:07:53.850Z,54.68
2022-09-12T10:10:20.923Z,53.28
2022-09-12T10:12:47.282Z,53.45
2022-09-12T10:15:20.109Z,55.16
2022-09-12T10:17:49.443Z,52.90
2022-09-12T10:20:33.787Z,55.48
2022-09-12T10:23:01.958Z,55.33
2022-09-12T10:25:28.813Z,52.58
2022-09-12T10:27:59.231Z,54.09
2022-09-12T10:30:27.205Z,53.92
2022-09-12T10:32:59.183Z,53.17
2022-09-12T10:35:29.484Z,52.97
2022-09-12T10:37:59.755Z,54.98
2022-09-12T10:40:28.253Z,52.42
2022-09-12T10:42:57.335Z,50.80
2022-09-12T10:45:27.400Z,50.03
2022-09-12T10:47:56.523Z,51.07
2022-09-12T10:50:26.083Z,50.76
2022-09-12T10:52:52.656Z,51.12
2022-09-12T10:55:28.056Z,50.75
2022-09-12T10:58:18.104Z,49.10
2022-09-12T11:00:52.544Z,51.04
2022-09-12T11:03:23.749Z,49.37
2022-09-12T11:05:54.530Z,48.96
2022-09-12T11:08:38.083Z,50.58
2022-09-12T11:11:10.543Z,51.18
2022-09-12T11:13:58.374Z,50.51
2022-09-12T11:16:32.253Z,50.08
2022-09-12T11:19:12.797Z,49.50
2022-09-12T11:21:52.427Z,48.61
2022-09-12T11:24:33.799Z,48.73
2022-09-12T11:27:11.938Z,47.51
2022-09-12T11:29:48.484Z,47.61
2022-09-12T11:32:42.936Z,47.75
2022-09-12T11:35:19.404Z,46.73
2022-09-12T11:38:09.644Z,47.24
2022-09-12T11:40:42.220Z,48.59
2022-09-12T11:43:29.178Z,46.17
2022-09-12T11:45:59.189Z,46.72
2022-09-12T11:48:38.236Z,44.47
2022-09-12T11:51:15.795Z,45.40
2022-09-12T11:53:44.369Z,48.91
2022-09-12T11:56:16.926Z,48.16
2022-09-12T11:58:46.963Z,49.17
2022-09-12T12:01:17.604Z,48.84
2022-09-12T12:03:46.808Z,46.59
2022-09-12T12:06:18.071Z,44.37
2022-09-12T12:08:46.245Z,44.38
2022-09-12T12:11:14.625Z,46.74
2022-09-12T12:13:46.861Z,44.39
2022-09-12T12:16:18.165Z,46.18
2022-09-12T12:18:45.358Z,46.22
2022-09-12T12:21:35.036Z,48.44
2022-09-12T12:24:20.606Z,45.35
2022-09-12T12:26:59.088Z,44.99
2022-09-12T12:29:44.159Z,44.77
2022-09-12T12:32:26.869Z,45.89
2022-09-12T12:35:38.562Z,46.00
2022-09-12T12:38:27.317Z,46.14
2022-09-12T12:40:54.141Z,47.33
2022-09-12T12:43:31.684Z,48.18
2022-09-12T12:46:07.655Z,47.24
2022-09-12T12:49:03.838Z,47.59
2022-09-12T12:51:45.400Z,46.80
2022-09-12T12:54:31.326Z,45.91
2022-09-12T12:57:04.691Z,44.85
2022-09-12T12:59:31.353Z,46.46
2022-09-12T13:01:59.768Z,48.41
2022-09-12T13:04:31.336Z,48.30
2022-09-12T13:07:07.212Z,47.87
2022-09-12T13:09:39.544Z,46.11
2022-09-12T13:12:09.772Z,48.11
2022-09-12T13:14:48.912Z,49.33
2022-09-12T13:17:21.890Z,49.35
2022-09-12T13:19:49.741Z,49.55
2022-09-12T13:22:16.263Z,49.99
2022-09-12T13:24:45.044Z,48.71
2022-09-12T13:27:18.572Z,49.45
2022-09-12T13:29:45.013Z,48.68
2022-09-12T13:32:11.447Z,50.02
2022-09-12T13:34:52.920Z,49.05
2022-09-12T13:37:42.615Z,49.93
2022-09-12T13:40:27.343Z,49.21
2022-09-12T13:43:12.548Z,47.74
2022-09-12T13:45:39.268Z,47.92
2022-09-12T13:48:08.092Z,48.84
2022-09-12T13:50:41.202Z,48.69
2022-09-12T13:53:14.291Z,47.72
2022-09-12T13:55:45.452Z,48.07
2022-09-12T13:58:21.948Z,47.34
2022-09-12T14:01:01.316Z,47.49
2022-09-12T14:03:29.591Z,46.65
2022-09-12T14:05:57.243Z,47.52
2022-09-12T14:08:23.963Z,47.29
2022-09-12T14:10:51.717Z,47.27
2022-09-12T14:13:20.606Z,47.47
2022-09-12T14:15:48.958Z,47.16
2022-09-12T14:18:23.659Z,46.13
2022-09-12T14:20:51.577Z,46.74
2022-09-12T14:23:21.172Z,47.03
2022-09-12T14:25:48.888Z,47.30
2022-09-12T14:28:21.527Z,47.35
2022-09-12T14:31:01.316Z,45.80
2022-09-12T14:33:28.285Z,46.61
2022-09-12T14:36:09.890Z,48.53
2022-09-12T14:38:40.295Z,46.96
2022-09-12T14:41:09.240Z,45.61
2022-09-12T14:43:41.114Z,45.03
2022-09-12T14:46:16.875Z,44.77
2022-09-12T14:48:47.596Z,46.36
2022-09-12T14:51:20.976Z,46.78
2022-09-12T14:53:47.944Z,46.43
2022-09-12T14:56:14.517Z,45.26
2022-09-12T14:58:42.585Z,47.46
2022-09-12T15:01:23.740Z,47.14
2022-09-12T15:03:52.405Z,46.04
2022-09-12T15:06:23.394Z,46.36
2022-09-12T15:08:49.959Z,45.34
2022-09-12T15:11:16.308Z,45.87
2022-09-12T15:13:44.017Z,44.17
2022-09-12T15:16:11.847Z,44.30
2022-09-12T15:18:38.347Z,44.56
2022-09-12T15:21:06.923Z,45.20
2022-09-12T15:23:36.750Z,44.54
2022-09-12T15:26:03.707Z,45.99
2022-09-12T15:28:31.382Z,45.31
2022-09-12T15:31:05.554Z,45.78
2022-09-12T15:33:31.918Z,45.96
2022-09-12T15:35:58.306Z,45.67
2022-09-12T15:38:26.754Z,45.06
2022-09-12T15:40:53.845Z,45.00
2022-09-12T15:43:20.931Z,45.43
2022-09-12T15:45:48.432Z,45.14
2022-09-12T15:48:16.094Z,45.37
2022-09-12T15:50:42.536Z,45.15
2022-09-12T15:53:13.912Z,46.47
2022-09-12T15:55:40.384Z,45.92
2022-09-12T15:58:07.485Z,45.51
2022-09-12T16:00:33.972Z,44.47
2022-09-12T16:03:00.365Z,44.16
2022-09-12T16:05:28.373Z,45.86
2022-09-12T16:07:55.212Z,45.66
2022-09-12T16:10:25.176Z,46.07
2022-09-12T16:12:51.872Z,46.42
2022-09-12T16:15:21.475Z,45.52
2022-09-12T16:17:48.477Z,45.35
2022-09-12T16:20:15.514Z,45.63
2022-09-12T16:22:43.204Z,45.76
2022-09-12T16:25:10.040Z,46.42
2022-09-12T16:27:37.189Z,46.80
2022-09-12T16:30:04.881Z,46.60
2022-09-12T16:32:31.315Z,46.75
2022-09-12T16:34:57.725Z,46.15
2022-09-12T16:37:24.122Z,45.71
2022-09-12T16:39:51.846Z,45.74
2022-09-12T16:42:18.270Z,46.12
2022-09-12T16:44:44.785Z,46.54
2022-09-12T16:47:11.299Z,46.77
2022-09-12T16:49:37.668Z,47.77
2022-09-12T16:52:04.356Z,46.67
2022-09-12T16:54:30.730Z,48.88
2022-09-12T16:56:58.444Z,48.70
2022-09-12T16:59:26.048Z,47.43
2022-09-12T17:01:52.427Z,47.99
2022-09-12T17:04:22.983Z,49.09
2022-09-12T17:06:50.180Z,49.03
2022-09-12T17:09:16.660Z,48.73
2022-09-12T17:11:43.015Z,49.19
2022-09-12T17:14:11.455Z,51.10
2022-09-12T17:16:42.976Z,51.46
2022-09-12T17:19:14.267Z,52.84
2022-09-12T17:21:40.728Z,52.44
2022-09-12T17:24:07.187Z,52.83
2022-09-12T17:26:33.615Z,53.11
2022-09-12T17:29:00.139Z,53.83
2022-09-12T17:31:27.931Z,54.09
2022-09-12T17:33:56.450Z,54.17
2022-09-12T17:36:22.818Z,54.00
2022-09-12T17:38:49.187Z,54.89
2022-09-12T17:41:17.915Z,54.94
2022-09-12T17:43:44.899Z,55.53
2022-09-12T17:46:11.797Z,55.70
2022-09-12T17:48:39.538Z,56.34
2022-09-12T17:51:09.614Z,56.54
2022-09-12T17:53:36.099Z,56.49
2022-09-12T17:56:03.310Z,55.97
2022-09-12T17:58:30.224Z,56.13
2022-09-12T18:01:01.123Z,58.78
2022-09-12T18:03:27.510Z,56.99
2022-09-12T18:05:56.411Z,58.06
2022-09-12T18:08:23.858Z,58.49
2022-09-12T18:10:51.044Z,58.54
2022-09-12T18:13:17.488Z,59.01
2022-09-12T18:15:44.100Z,57.38
2022-09-12T18:18:10.540Z,59.24
2022-09-12T18:20:36.932Z,58.14
2022-09-12T18:23:04.664Z,57.75
2022-09-12T18:25:31.033Z,59.05
2022-09-12T18:27:57.391Z,58.49
2022-09-12T18:30:23.887Z,59.24
2022-09-12T18:32:51.733Z,59.49
2022-09-12T18:35:18.121Z,59.73
2022-09-12T18:37:44.541Z,58.42
2022-09-12T18:40:12.424Z,58.78
2022-09-12T18:42:38.811Z,58.61
2022-09-12T18:45:07.029Z,58.05
2022-09-12T18:47:33.431Z,58.88
2022-09-12T18:49:59.848Z,59.46
2022-09-12T18:52:26.235Z,59.98
2022-09-12T18:54:52.723Z,59.60
2022-09-12T18:57:20.430Z,60.76
2022-09-12T18:59:46.828Z,60.22
2022-09-12T19:02:15.897Z,60.81
2022-09-12T19:04:42.482Z,61.22
2022-09-12T19:07:09.141Z,59.72
2022-09-12T19:09:35.546Z,60.42
2022-09-12T19:12:02.536Z,59.24
2022-09-12T19:14:30.463Z,59.27
2022-09-12T19:16:56.810Z,60.65
2022-09-12T19:19:23.186Z,59.94
2022-09-12T19:21:49.643Z,59.92
2022-09-12T19:24:16.043Z,59.77
2022-09-12T19:26:42.508Z,59.98
2022-09-12T19:29:10.166Z,60.64
2022-09-12T19:31:38.043Z,61.24
2022-09-12T19:34:06.727Z,59.61
2022-09-12T19:36:45.442Z,60.00
2022-09-12T19:39:12.411Z,58.77
2022-09-12T19:41:38.821Z,59.41
2022-09-12T19:44:05.342Z,59.35
2022-09-12T19:46:32.050Z,59.38
2022-09-12T19:48:59.793Z,59.93
2022-09-12T19:51:26.174Z,59.67
2022-09-12T19:53:53.148Z,58.93
2022-09-12T19:56:19.583Z,60.02
2022-09-12T19:58:50.891Z,59.99
2022-09-12T20:01:22.177Z,58.04
2022-09-12T20:03:48.544Z,59.30
2022-09-12T20:06:17.680Z,59.04
2022-09-12T20:08:44.923Z,59.01
2022-09-12T20:11:12.895Z,58.89
2022-09-12T20:13:39.679Z,58.32
2022-09-12T20:16:07.092Z,59.05
2022-09-12T20:18:33.654Z,58.95
2022-09-12T20:21:07.831Z,58.98
2022-09-12T20:23:35.795Z,59.43
2022-09-12T20:26:02.161Z,59.89
2022-09-12T20:28:28.540Z,60.76
2022-09-12T20:31:00.427Z,59.99
2022-09-12T20:33:27.818Z,60.59
2022-09-12T20:36:01.432Z,59.67
2022-09-12T20:38:27.781Z,59.29
2022-09-12T20:40:55.698Z,59.74
2022-09-12T20:43:22.239Z,60.54
2022-09-12T20:45:48.587Z,59.96
2022-09-12T20:48:14.967Z,61.10
2022-09-12T20:50:41.352Z,60.17
2022-09-12T20:53:07.712Z,60.69
2022-09-12T20:55:34.100Z,60.35
2022-09-12T20:58:01.955Z,59.87
2022-09-12T21:00:28.316Z,60.42
2022-09-12T21:02:54.717Z,60.37
2022-09-12T21:05:21.111Z,61.66
2022-09-12T21:07:47.540Z,61.23
2022-09-12T21:10:14.132Z,60.82
2022-09-12T21:12:40.581Z,59.71
2022-09-12T21:15:09.800Z,61.10
2022-09-12T21:17:36.206Z,60.02
2022-09-12T21:20:02.598Z,60.70
2022-09-12T21:22:29.744Z,60.43
2022-09-12T21:24:56.098Z,60.48
2022-09-12T21:27:22.455Z,61.00
2022-09-12T21:29:48.775Z,60.91
2022-09-12T21:32:16.519Z,61.19
2022-09-12T21:34:42.907Z,61.09
2022-09-12T21:37:09.301Z,61.30
2022-09-12T21:39:35.655Z,61.69
2022-09-12T21:42:02.091Z,60.11
2022-09-12T21:44:28.463Z,61.33
2022-09-12T21:46:54.886Z,61.12
2022-09-12T21:49:22.568Z,60.49
2022-09-12T21:51:51.098Z,60.96
2022-09-12T21:54:17.435Z,61.03
2022-09-12T21:56:43.864Z,61.14
2022-09-12T21:59:10.228Z,60.86
2022-09-12T22:01:36.672Z,61.78
2022-09-12T22:04:03.327Z,61.02
2022-09-12T22:06:31.008Z,59.65
2022-09-12T22:08:57.388Z,60.55
2022-09-12T22:11:23.793Z,60.81
2022-09-12T22:13:50.314Z,60.29
2022-09-12T22:16:16.813Z,59.94
2022-09-12T22:18:43.261Z,60.83
2022-09-12T22:21:17.619Z,60.96
2022-09-12T22:23:45.478Z,61.85
2022-09-12T22:26:31.388Z,60.43
2022-09-12T22:28:57.752Z,61.27
2022-09-12T22:31:24.241Z,61.81
2022-09-12T22:33:50.663Z,60.96
2022-09-12T22:36:17.095Z,61.36
2022-09-12T22:38:44.826Z,61.12
2022-09-12T22:41:12.078Z,61.25
2022-09-12T22:43:38.455Z,61.71
2022-09-12T22:46:06.848Z,61.95
2022-09-12T22:48:33.311Z,62.27
2022-09-12T22:50:59.707Z,61.42
2022-09-12T22:53:26.070Z,61.24
2022-09-12T22:55:53.851Z,61.13
2022-09-12T22:58:20.472Z,61.14
2022-09-12T23:00:47.385Z,61.51
2022-09-12T23:03:14.025Z,61.76
2022-09-12T23:05:40.423Z,60.86
2022-09-12T23:08:06.782Z,60.41
2022-09-12T23:10:35.093Z,60.90
2022-09-12T23:13:02.837Z,62.03
2022-09-12T23:15:29.234Z,61.50
2022-09-12T23:17:55.608Z,61.42
2022-09-12T23:20:21.992Z,61.85
2022-09-12T23:22:48.364Z,62.95
2022-09-12T23:25:14.877Z,60.78
2022-09-12T23:27:41.291Z,61.44
2022-09-12T23:30:10.591Z,61.01
2022-09-12T23:32:36.989Z,62.30
2022-09-12T23:35:03.637Z,61.81
2022-09-12T23:37:30.140Z,61.75
2022-09-12T23:39:56.544Z,61.65
2022-09-12T23:42:22.926Z,60.88
2022-09-12T23:44:49.278Z,61.79
2022-09-12T23:47:16.982Z,62.07
2022-09-12T23:49:43.372Z,61.15
2022-09-12T23:52:09.714Z,61.82
2022-09-12T23:54:36.056Z,61.12
2022-09-12T23:57:02.471Z,61.61
2022-09-12T23:59:28.815Z,63.01
